CheckWX is a tool to help pilots better visualize weather data.  It is not intended as a substitute for an official pre-flight weather briefing.

08:54:42 UTC

KOMK METAR
Omak Airport
Omak, Washington, USA
Current

1 hour ago

KOMK 310753Z AUTO 35012KT 10SM CLR 18/14 A2963 RMK AO2 SLP025 T01830139 402890172
Observed
May-31 @ 07:53 UTC
Wind
  • 350° at 12 KTS
Visibility
Flight Rules
VFR
Cloud Levels
  • Clear skies
Dewpoint
14°C / 57°F
Humidity
78%
Altimeter
29.63" Hg
Pressure
1003.42 hPa
Previous

2 hours ago

KOMK 310653Z AUTO 33008KT 10SM CLR 19/14 A2962 RMK AO2 SLP023 T01890144
Observed
May-31 @ 06:53 UTC
Wind
  • 330° at 8 KTS
Visibility
Flight Rules
VFR
Cloud Levels
  • Clear skies
Temperature
19°C / 66°F
Dewpoint
14°C / 57°F
Humidity
73%
Altimeter
29.62" Hg
Pressure
1003.02 hPa
Previous

3 hours ago

KOMK 310553Z AUTO 36013KT 10SM CLR 19/15 A2957 RMK AO2 SLP008 60003 T01890150 10272 20189 56007
Observed
May-31 @ 05:53 UTC
Wind
  • 360° at 13 KTS
Visibility
Flight Rules
VFR
Cloud Levels
  • Clear skies
Temperature
19°C / 66°F
Dewpoint
15°C / 59°F
Humidity
78%
Altimeter
29.57" Hg
Pressure
1001.32 hPa